aviador You're here:

PAGH Decoded Metar

in
Report Time2017-12-16 10:56:00
UTC Time2017-12-16 11:03:48
Flight Rules vfr VFR
Wind100° at 13 kt
W.Decomp.*RWY 09: 12.8 kt HW 2.3 kt RCW
W.Rank100° ranks 2
Current wind is above 100° avg. (11.6)
Visibility9999 m
Phenomena:Light Snow
Clouds:Broken 050 Hf
Expected CloudBase > 400 ft AGL from Temp-Dew spread
Ceiling5,000 ft
Temp-3°C
Dew Point-4°C (93% RH)
AAT-10.2°C
QNH991 hPa
Raw Report
PAGH 161056Z AUTO 10013KT 9SM -SN BKN050 M03/M04 A2925 RMK AO2
SNB0959 SLP911 P0000 T10281044 FZRANO=

Extra information for PAGH:More info

Social comments